BBC Delaware — V2CN9 — position and weather

sailwx.info

Track history (hours):
 
Tides and Currents Weather Stations Pressure Air Temp Water Temp Dewpoint Dewpoint Depression Visibility Wind Speed Wind Dir Waves Ship Positions

BBC Delaware

Last reported at 2015-Jul-24 04:13 UTC. Time now 2015-Jul-28 17:49 UTC.
Position N 40°45' E 029°31'.

Length 138 m; draft 5.7 m.

Type: Cargo ship. MMSI: 305057000.

Date/timePositionNaut miles runAvg speedWind from/ knotsBaromVisibWave heightAir tempDewpointWater temp
2015-Jul-24 04:13N 40°45' E 029°31'710.9
2015-Jul-24 03:33N 40°43' E 029°21'1110.7
2015-Jul-24 02:33N 40°43' E 029°07'1110.5
2015-Jul-24 01:29N 40°43' E 028°52'  
2015-Jul-20 22:33N 36°37' E 014°35'1212.4
2015-Jul-20 21:33N 36°42' E 014°21'1212.4
2015-Jul-20 20:33N 36°47' E 014°07'1312.6
2015-Jul-20 19:33N 36°52' E 013°53'1312.6
2015-Jul-20 18:33N 36°57' E 013°38'1312.7
2015-Jul-20 17:33N 37°03' E 013°24'1313.2
2015-Jul-20 16:33N 37°08' E 013°09'1312.8
2015-Jul-20 15:33N 37°13' E 012°54'1312.7
2015-Jul-20 14:34N 37°19' E 012°39'1312.7
2015-Jul-20 13:34N 37°24' E 012°25'1312.9
2015-Jul-20 12:34N 37°30' E 012°11'1313.1
2015-Jul-20 11:33N 37°36' E 011°56'1312.8
2015-Jul-20 10:33N 37°42' E 011°42'1313.1
2015-Jul-20 09:33N 37°49' E 011°27'1313.0
2015-Jul-20 08:33N 37°55' E 011°13'1412.9
2015-Jul-20 07:30N 38°01' E 010°57'1213.0
2015-Jul-20 06:33N 38°05' E 010°42'1312.8
2015-Jul-20 05:33N 38°09' E 010°27'1312.9
2015-Jul-20 04:33N 38°13' E 010°12'1313.0
2015-Jul-20 03:31N 38°18' E 009°55'1513.1
2015-Jul-20 02:24N 38°22' E 009°38'1113.1
2015-Jul-20 01:33N 38°26' E 009°25'1813.0
2015-Jul-20 00:12N 38°33' E 009°03'1012.7
2015-Jul-19 23:23N 38°36' E 008°51'1012.4
2015-Jul-19 22:33N 38°39' E 008°38'2612.8
2015-Jul-19 20:29N 38°47' E 008°06'9312.9
2015-Jul-19 13:18N 39°14' E 006°12'8912.8
2015-Jul-19 06:22N 39°38' E 004°22'1213.1
2015-Jul-19 05:28N 39°43' E 004°08'1412.8
2015-Jul-19 04:23N 39°47' E 003°50'4812.6
2015-Jul-19 00:33N 40°11' E 002°56'1312.6
2015-Jul-18 23:33N 40°18' E 002°42'1312.7
2015-Jul-18 22:33N 40°26' E 002°29'1312.8
2015-Jul-18 21:33N 40°33' E 002°15'1312.8
2015-Jul-18 20:33N 40°40' E 002°01'1313.0
2015-Jul-18 19:33N 40°47' E 001°47'1313.0
2015-Jul-18 18:33N 40°55' E 001°32'1313.2
2015-Jul-18 17:33N 41°02' E 001°18'5 4.4
2015-Jul-18 16:30N 41°06' E 001°15'0 0.0
2015-Jul-18 14:26N 41°06' E 001°15'0 0.0
2015-Jul-18 13:32N 41°06' E 001°15'0 0.0
2015-Jul-18 12:33N 41°06' E 001°15'0 0.0
2015-Jul-18 11:33N 41°06' E 001°15'0 0.0
2015-Jul-18 10:29N 41°06' E 001°15'0 0.0
2015-Jul-18 09:32N 41°06' E 001°15'0 0.0
2015-Jul-18 07:06N 41°06' E 001°15'0 0.0
2015-Jul-18 06:15N 41°06' E 001°15'0 0.0
2015-Jul-18 05:30N 41°06' E 001°15'0 0.0
2015-Jul-18 04:31N 41°06' E 001°15'0 0.0
2015-Jul-18 03:34N 41°06' E 001°15'0 0.0
2015-Jul-18 02:31N 41°06' E 001°15'0 0.0
2015-Jul-18 01:33N 41°06' E 001°15'0 0.0
2015-Jul-18 00:33N 41°06' E 001°15'0 0.0
2015-Jul-17 23:33N 41°06' E 001°15'0 0.0
2015-Jul-17 22:33N 41°06' E 001°15'0 0.0
2015-Jul-17 21:33N 41°06' E 001°15'0 0.0
2015-Jul-17 20:33N 41°06' E 001°15'0 0.0
2015-Jul-17 19:33N 41°06' E 001°15'0 0.0
2015-Jul-17 18:34N 41°06' E 001°15'0 0.0
2015-Jul-17 17:05N 41°06' E 001°15'0 0.0
2015-Jul-17 16:19N 41°06' E 001°15'0 0.0
2015-Jul-17 15:33N 41°06' E 001°15'0 0.0
2015-Jul-17 14:33N 41°06' E 001°15'0 0.0
2015-Jul-17 13:30N 41°06' E 001°15'0 0.0
2015-Jul-17 12:31N 41°06' E 001°15'0 0.0
2015-Jul-17 11:32N 41°06' E 001°15'0 0.0
2015-Jul-17 10:29N 41°06' E 001°15'0 0.0
2015-Jul-17 09:23N 41°06' E 001°15'0 0.0
2015-Jul-17 08:34N 41°06' E 001°15'0 0.0
2015-Jul-17 07:33N 41°06' E 001°15'0 0.0
2015-Jul-17 06:32N 41°06' E 001°15'20 9.4
2015-Jul-17 04:21N 40°46' E 001°09'1113.5
2015-Jul-17 03:33N 40°36' E 001°07'1413.7
2015-Jul-17 02:33N 40°22' E 001°04'1413.9
2015-Jul-17 01:33N 40°08' E 001°02'2013.9
2015-Jul-17 00:05N 39°49' E 000°55'3913.7
2015-Jul-16 21:14N 39°11' E 000°40'1014.4
2015-Jul-16 20:33N 39°02' E 000°36'1514.5
2015-Jul-16 19:33N 38°48' E 000°31'1514.5
2015-Jul-16 18:30N 38°35' E 000°22'1514.6
2015-Jul-16 17:30N 38°22' E 000°12'1414.2
2015-Jul-16 16:28N 38°10' E 000°01'1314.0
2015-Jul-16 15:33N 37°60' W 000°07'1413.7
2015-Jul-16 14:33N 37°48' W 000°17'1713.9
2015-Jul-16 13:21N 37°35' W 000°29'1113.5
2015-Jul-16 12:32N 37°27' W 000°39'1413.4
2015-Jul-16 11:28N 37°18' W 000°53'7113.2
2015-Jul-16 06:04N 36°30' W 001°59'913.1
2015-Jul-16 05:23N 36°24' W 002°08'1113.1
2015-Jul-16 04:33N 36°21' W 002°21'1313.4
2015-Jul-16 03:33N 36°19' W 002°38'1313.3
2015-Jul-16 02:33N 36°17' W 002°54'1413.5
2015-Jul-16 01:33N 36°15' W 003°11'15814.4
2015-Jul-15 14:33N 35°33' W 006°19'1313.4
2015-Jul-15 13:33N 35°23' W 006°30'3314.0
2015-Jul-15 11:14N 34°58' W 006°56'1014.3
2015-Jul-15 10:34N 34°51' W 007°03'1414.3
2015-Jul-15 09:34N 34°40' W 007°15'2014.2
2015-Jul-15 08:10N 34°25' W 007°30'2314.2
2015-Jul-15 06:32N 34°07' W 007°48'1514.2
2015-Jul-15 05:28N 33°56' W 008°00'1313.5
2015-Jul-15 04:31N 33°46' W 008°10'1313.6
2015-Jul-15 03:32N 33°36' W 008°20'1313.3
2015-Jul-15 02:33N 33°26' W 008°30'1413.6
2015-Jul-15 01:33N 33°15' W 008°41'1313.5
2015-Jul-15 00:34N 33°05' W 008°51'1413.7
2015-Jul-14 23:33N 32°55' W 009°02'1413.7
2015-Jul-14 22:33N 32°44' W 009°12'1413.3
2015-Jul-14 21:32N 32°34' W 009°23'1313.1
2015-Jul-14 20:33N 32°24' W 009°33'1413.2
2015-Jul-14 19:31N 32°14' W 009°43'1212.6
2015-Jul-14 18:33N 32°04' W 009°52'1212.1
2015-Jul-14 17:33N 31°55' W 010°01'1211.8
2015-Jul-14 16:33N 31°46' W 010°10'1212.3
2015-Jul-14 15:33N 31°36' W 010°18'1212.3
2015-Jul-14 14:33N 31°26' W 010°27'1211.7
2015-Jul-14 13:33N 31°16' W 010°35'1211.7
2015-Jul-14 12:33N 31°07' W 010°43'1212.4
2015-Jul-14 11:33N 30°57' W 010°51'1312.6
2015-Jul-14 10:33N 30°46' W 010°60'1313.0
2015-Jul-14 09:31N 30°36' W 011°09'1212.9
2015-Jul-14 08:33N 30°26' W 011°17'1313.0
2015-Jul-14 07:33N 30°15' W 011°26'1312.6
2015-Jul-14 06:30N 30°04' W 011°35'1212.2
2015-Jul-14 05:33N 29°55' W 011°43'1412.1
2015-Jul-14 04:22N 29°43' W 011°52'  
Track history (hours):
 
Tides and Currents Weather Stations Pressure Air Temp Water Temp Dewpoint Dewpoint Depression Visibility Wind Speed Wind Dir Waves Ship Positions

BBC Delaware

Last reported at 2015-Jul-24 04:13 UTC. Time now 2015-Jul-28 17:49 UTC.
Position N 40°45' E 029°31'.

Length 138 m; draft 5.7 m.

Type: Cargo ship. MMSI: 305057000.

Date/timePositionNaut miles runAvg speedWind from/ knotsBaromVisibWave heightAir tempDewpointWater temp
2015-Jul-24 04:13N 40°45' E 029°31'710.9
2015-Jul-24 03:33N 40°43' E 029°21'1110.7
2015-Jul-24 02:33N 40°43' E 029°07'1110.5
2015-Jul-24 01:29N 40°43' E 028°52'  
2015-Jul-20 22:33N 36°37' E 014°35'1212.4
2015-Jul-20 21:33N 36°42' E 014°21'1212.4
2015-Jul-20 20:33N 36°47' E 014°07'1312.6
2015-Jul-20 19:33N 36°52' E 013°53'1312.6
2015-Jul-20 18:33N 36°57' E 013°38'1312.7
2015-Jul-20 17:33N 37°03' E 013°24'1313.2
2015-Jul-20 16:33N 37°08' E 013°09'1312.8
2015-Jul-20 15:33N 37°13' E 012°54'1312.7
2015-Jul-20 14:34N 37°19' E 012°39'1312.7
2015-Jul-20 13:34N 37°24' E 012°25'1312.9
2015-Jul-20 12:34N 37°30' E 012°11'1313.1
2015-Jul-20 11:33N 37°36' E 011°56'1312.8
2015-Jul-20 10:33N 37°42' E 011°42'1313.1
2015-Jul-20 09:33N 37°49' E 011°27'1313.0
2015-Jul-20 08:33N 37°55' E 011°13'1412.9
2015-Jul-20 07:30N 38°01' E 010°57'1213.0
2015-Jul-20 06:33N 38°05' E 010°42'1312.8
2015-Jul-20 05:33N 38°09' E 010°27'1312.9
2015-Jul-20 04:33N 38°13' E 010°12'1313.0
2015-Jul-20 03:31N 38°18' E 009°55'1513.1
2015-Jul-20 02:24N 38°22' E 009°38'1113.1
2015-Jul-20 01:33N 38°26' E 009°25'1813.0
2015-Jul-20 00:12N 38°33' E 009°03'1012.7
2015-Jul-19 23:23N 38°36' E 008°51'1012.4
2015-Jul-19 22:33N 38°39' E 008°38'2612.8
2015-Jul-19 20:29N 38°47' E 008°06'9312.9
2015-Jul-19 13:18N 39°14' E 006°12'8912.8
2015-Jul-19 06:22N 39°38' E 004°22'1213.1
2015-Jul-19 05:28N 39°43' E 004°08'1412.8
2015-Jul-19 04:23N 39°47' E 003°50'4812.6
2015-Jul-19 00:33N 40°11' E 002°56'1312.6
2015-Jul-18 23:33N 40°18' E 002°42'1312.7
2015-Jul-18 22:33N 40°26' E 002°29'1312.8
2015-Jul-18 21:33N 40°33' E 002°15'1312.8
2015-Jul-18 20:33N 40°40' E 002°01'1313.0
2015-Jul-18 19:33N 40°47' E 001°47'1313.0
2015-Jul-18 18:33N 40°55' E 001°32'1313.2
2015-Jul-18 17:33N 41°02' E 001°18'5 4.4
2015-Jul-18 16:30N 41°06' E 001°15'0 0.0
2015-Jul-18 14:26N 41°06' E 001°15'0 0.0
2015-Jul-18 13:32N 41°06' E 001°15'0 0.0
2015-Jul-18 12:33N 41°06' E 001°15'0 0.0
2015-Jul-18 11:33N 41°06' E 001°15'0 0.0
2015-Jul-18 10:29N 41°06' E 001°15'0 0.0
2015-Jul-18 09:32N 41°06' E 001°15'0 0.0
2015-Jul-18 07:06N 41°06' E 001°15'0 0.0
2015-Jul-18 06:15N 41°06' E 001°15'0 0.0
2015-Jul-18 05:30N 41°06' E 001°15'0 0.0
2015-Jul-18 04:31N 41°06' E 001°15'0 0.0
2015-Jul-18 03:34N 41°06' E 001°15'0 0.0
2015-Jul-18 02:31N 41°06' E 001°15'0 0.0
2015-Jul-18 01:33N 41°06' E 001°15'0 0.0
2015-Jul-18 00:33N 41°06' E 001°15'0 0.0
2015-Jul-17 23:33N 41°06' E 001°15'0 0.0
2015-Jul-17 22:33N 41°06' E 001°15'0 0.0
2015-Jul-17 21:33N 41°06' E 001°15'0 0.0
2015-Jul-17 20:33N 41°06' E 001°15'0 0.0
2015-Jul-17 19:33N 41°06' E 001°15'0 0.0
2015-Jul-17 18:34N 41°06' E 001°15'0 0.0
2015-Jul-17 17:05N 41°06' E 001°15'0 0.0
2015-Jul-17 16:19N 41°06' E 001°15'0 0.0
2015-Jul-17 15:33N 41°06' E 001°15'0 0.0
2015-Jul-17 14:33N 41°06' E 001°15'0 0.0
2015-Jul-17 13:30N 41°06' E 001°15'0 0.0
2015-Jul-17 12:31N 41°06' E 001°15'0 0.0
2015-Jul-17 11:32N 41°06' E 001°15'0 0.0
2015-Jul-17 10:29N 41°06' E 001°15'0 0.0
2015-Jul-17 09:23N 41°06' E 001°15'0 0.0
2015-Jul-17 08:34N 41°06' E 001°15'0 0.0
2015-Jul-17 07:33N 41°06' E 001°15'0 0.0
2015-Jul-17 06:32N 41°06' E 001°15'20 9.4
2015-Jul-17 04:21N 40°46' E 001°09'1113.5
2015-Jul-17 03:33N 40°36' E 001°07'1413.7
2015-Jul-17 02:33N 40°22' E 001°04'1413.9
2015-Jul-17 01:33N 40°08' E 001°02'2013.9
2015-Jul-17 00:05N 39°49' E 000°55'3913.7
2015-Jul-16 21:14N 39°11' E 000°40'1014.4
2015-Jul-16 20:33N 39°02' E 000°36'1514.5
2015-Jul-16 19:33N 38°48' E 000°31'1514.5
2015-Jul-16 18:30N 38°35' E 000°22'1514.6
2015-Jul-16 17:30N 38°22' E 000°12'1414.2
2015-Jul-16 16:28N 38°10' E 000°01'1314.0
2015-Jul-16 15:33N 37°60' W 000°07'1413.7
2015-Jul-16 14:33N 37°48' W 000°17'1713.9
2015-Jul-16 13:21N 37°35' W 000°29'1113.5
2015-Jul-16 12:32N 37°27' W 000°39'1413.4
2015-Jul-16 11:28N 37°18' W 000°53'7113.2
2015-Jul-16 06:04N 36°30' W 001°59'913.1
2015-Jul-16 05:23N 36°24' W 002°08'1113.1
2015-Jul-16 04:33N 36°21' W 002°21'1313.4
2015-Jul-16 03:33N 36°19' W 002°38'1313.3
2015-Jul-16 02:33N 36°17' W 002°54'1413.5
2015-Jul-16 01:33N 36°15' W 003°11'15814.4
2015-Jul-15 14:33N 35°33' W 006°19'1313.4
2015-Jul-15 13:33N 35°23' W 006°30'3314.0
2015-Jul-15 11:14N 34°58' W 006°56'1014.3
2015-Jul-15 10:34N 34°51' W 007°03'1414.3
2015-Jul-15 09:34N 34°40' W 007°15'2014.2
2015-Jul-15 08:10N 34°25' W 007°30'2314.2
2015-Jul-15 06:32N 34°07' W 007°48'1514.2
2015-Jul-15 05:28N 33°56' W 008°00'1313.5
2015-Jul-15 04:31N 33°46' W 008°10'1313.6
2015-Jul-15 03:32N 33°36' W 008°20'1313.3
2015-Jul-15 02:33N 33°26' W 008°30'1413.6
2015-Jul-15 01:33N 33°15' W 008°41'1313.5
2015-Jul-15 00:34N 33°05' W 008°51'1413.7
2015-Jul-14 23:33N 32°55' W 009°02'1413.7
2015-Jul-14 22:33N 32°44' W 009°12'1413.3
2015-Jul-14 21:32N 32°34' W 009°23'1313.1
2015-Jul-14 20:33N 32°24' W 009°33'1413.2
2015-Jul-14 19:31N 32°14' W 009°43'1212.6
2015-Jul-14 18:33N 32°04' W 009°52'1212.1
2015-Jul-14 17:33N 31°55' W 010°01'1211.8
2015-Jul-14 16:33N 31°46' W 010°10'1212.3
2015-Jul-14 15:33N 31°36' W 010°18'1212.3
2015-Jul-14 14:33N 31°26' W 010°27'1211.7
2015-Jul-14 13:33N 31°16' W 010°35'1211.7
2015-Jul-14 12:33N 31°07' W 010°43'1212.4
2015-Jul-14 11:33N 30°57' W 010°51'1312.6
2015-Jul-14 10:33N 30°46' W 010°60'1313.0
2015-Jul-14 09:31N 30°36' W 011°09'1212.9
2015-Jul-14 08:33N 30°26' W 011°17'1313.0
2015-Jul-14 07:33N 30°15' W 011°26'1312.6
2015-Jul-14 06:30N 30°04' W 011°35'1212.2
2015-Jul-14 05:33N 29°55' W 011°43'1412.1
2015-Jul-14 04:22N 29°43' W 011°52'  

Dump ship's entire track history